createdAt,value
2022-09-26T00:04:29.088Z,4.45
2022-09-26T00:09:34.774Z,8.45
2022-09-26T00:14:38.941Z,5.88
2022-09-26T00:19:43.083Z,5.15
2022-09-26T00:24:45.934Z,3.60
2022-09-26T00:29:48.729Z,5.28
2022-09-26T00:34:53.804Z,8.80
2022-09-26T00:39:56.660Z,6.30
2022-09-26T00:45:01.330Z,4.93
2022-09-26T00:50:10.752Z,3.58
2022-09-26T00:55:15.743Z,5.05
2022-09-26T01:00:18.555Z,4.80
2022-09-26T01:05:25.558Z,10.50
2022-09-26T01:10:30.088Z,5.28
2022-09-26T01:15:34.470Z,5.63
2022-09-26T01:20:50.671Z,4.90
2022-09-26T01:26:23.489Z,5.43
2022-09-26T01:31:39.065Z,4.13
2022-09-26T01:37:03.178Z,8.30
2022-09-26T01:42:19.049Z,7.10
2022-09-26T01:47:28.626Z,5.90
2022-09-26T01:52:38.012Z,5.60
2022-09-26T01:57:45.541Z,11.05
2022-09-26T02:02:51.331Z,8.93
2022-09-26T02:07:59.064Z,9.75
2022-09-26T02:13:08.196Z,7.75
2022-09-26T02:18:19.542Z,9.98
2022-09-26T02:23:23.240Z,9.73
2022-09-26T02:28:28.543Z,7.00
2022-09-26T02:33:33.576Z,7.63
2022-09-26T02:38:37.143Z,10.30
2022-09-26T02:50:40.335Z,8.33
2022-09-26T02:55:49.035Z,7.93
2022-09-26T03:01:00.638Z,10.10
2022-09-26T03:06:09.853Z,6.60
2022-09-26T03:11:17.626Z,10.05
2022-09-26T03:16:21.961Z,8.38
2022-09-26T03:21:27.129Z,7.07
2022-09-26T03:26:31.658Z,4.40
2022-09-26T03:31:36.987Z,6.05
2022-09-26T03:36:43.849Z,10.60
2022-09-26T03:41:47.741Z,6.88
2022-09-26T03:47:04.371Z,10.32
2022-09-26T03:52:13.070Z,5.95
2022-09-26T03:57:17.573Z,10.07
2022-09-26T04:02:28.694Z,7.67
2022-09-26T04:07:49.037Z,8.18
2022-09-26T04:12:51.932Z,8.95
2022-09-26T04:17:55.926Z,8.57
2022-09-26T04:23:01.277Z,7.43
2022-09-26T04:28:04.272Z,9.07
2022-09-26T04:33:07.791Z,11.45
2022-09-26T04:38:26.791Z,12.25
2022-09-26T04:43:29.876Z,11.32
2022-09-26T04:48:32.861Z,8.70
2022-09-26T04:53:42.889Z,8.57
2022-09-26T04:58:52.020Z,6.70
2022-09-26T05:03:57.824Z,11.93
2022-09-26T05:09:04.702Z,8.63
2022-09-26T05:14:26.534Z,6.88
2022-09-26T05:19:29.342Z,10.40
2022-09-26T05:25:12.775Z,10.75
2022-09-26T05:30:15.656Z,7.45
2022-09-26T05:35:18.832Z,9.80
2022-09-26T05:40:40.993Z,9.80
2022-09-26T05:45:50.826Z,12.30
2022-09-26T05:51:05.777Z,11.85
2022-09-26T05:56:16.151Z,7.63
2022-09-26T06:01:39.602Z,14.95
2022-09-26T06:06:54.140Z,11.43
2022-09-26T06:17:01.932Z,10.02
2022-09-26T06:22:05.149Z,9.70
2022-09-26T06:32:12.031Z,10.63
2022-09-26T06:37:33.301Z,14.50
2022-09-26T06:42:37.895Z,11.70
2022-09-26T06:48:02.242Z,15.05
2022-09-26T06:53:10.043Z,19.08
2022-09-26T06:58:14.586Z,12.10
2022-09-26T07:03:30.410Z,17.40
2022-09-26T07:09:01.433Z,12.30
2022-09-26T07:14:19.348Z,12.88
2022-09-26T07:19:29.084Z,12.90
2022-09-26T07:24:40.033Z,11.77
2022-09-26T07:29:47.247Z,14.07
2022-09-26T07:34:51.596Z,15.63
2022-09-26T07:39:58.170Z,11.95
2022-09-26T07:45:29.321Z,13.27
2022-09-26T07:50:31.171Z,11.18
2022-09-26T07:56:00.501Z,11.15
2022-09-26T08:01:23.906Z,13.27
2022-09-26T08:06:59.567Z,10.73
2022-09-26T08:12:03.196Z,10.50
2022-09-26T08:17:32.893Z,7.75
2022-09-26T08:22:35.884Z,9.02
2022-09-26T08:27:38.814Z,10.23
2022-09-26T08:32:44.439Z,7.60
2022-09-26T08:37:47.564Z,8.55
2022-09-26T08:43:29.365Z,6.22
2022-09-26T08:49:15.958Z,7.93
2022-09-26T08:54:20.734Z,5.90
2022-09-26T08:59:28.359Z,7.70
2022-09-26T09:04:42.013Z,5.63
2022-09-26T09:09:45.346Z,7.25
2022-09-26T09:15:24.525Z,6.43
2022-09-26T09:20:58.764Z,4.80
2022-09-26T09:31:46.946Z,7.95
2022-09-26T09:37:28.232Z,10.80
2022-09-26T09:42:52.968Z,9.68
2022-09-26T09:47:57.604Z,3.97
2022-09-26T09:53:14.519Z,5.25
2022-09-26T09:58:40.252Z,7.28
2022-09-26T10:03:55.497Z,4.45
2022-09-26T10:09:35.632Z,5.30
2022-09-26T10:14:57.671Z,5.32
2022-09-26T10:20:42.652Z,4.78
2022-09-26T10:25:49.628Z,4.20
2022-09-26T10:30:56.330Z,3.72
2022-09-26T10:36:10.057Z,6.93
2022-09-26T10:41:24.733Z,11.88
2022-09-26T10:46:30.534Z,3.13
2022-09-26T10:52:01.341Z,4.70
2022-09-26T10:57:09.490Z,3.15
2022-09-26T11:02:21.950Z,8.07
2022-09-26T11:12:59.813Z,6.38
2022-09-26T11:18:03.296Z,5.07
2022-09-26T11:23:14.266Z,5.97
2022-09-26T11:28:25.013Z,4.53
2022-09-26T11:34:05.419Z,9.88
2022-09-26T11:39:37.648Z,7.07
2022-09-26T11:44:52.981Z,6.65
2022-09-26T11:50:08.785Z,7.78
2022-09-26T11:55:51.430Z,7.35
2022-09-26T12:01:04.039Z,7.32
2022-09-26T12:06:20.523Z,5.57
2022-09-26T12:11:28.699Z,7.22
2022-09-26T12:16:46.750Z,10.35
2022-09-26T12:22:16.726Z,5.07
2022-09-26T12:27:26.511Z,2.78
2022-09-26T12:32:46.853Z,11.85
2022-09-26T12:38:22.378Z,6.30
2022-09-26T12:43:46.961Z,6.28
2022-09-26T12:49:07.512Z,5.05
2022-09-26T12:54:33.023Z,8.18
2022-09-26T12:59:51.872Z,9.90
2022-09-26T13:05:18.836Z,6.05
2022-09-26T13:10:30.195Z,6.88
2022-09-26T13:15:41.571Z,7.63
2022-09-26T13:20:51.777Z,6.68
2022-09-26T13:25:59.209Z,8.20
2022-09-26T13:31:06.463Z,2.20
2022-09-26T13:36:11.876Z,2.38
2022-09-26T13:41:34.953Z,2.83
2022-09-26T13:46:53.319Z,5.10
2022-09-26T13:52:14.960Z,7.43
2022-09-26T13:57:36.730Z,5.13
2022-09-26T14:02:39.785Z,15.55
2022-09-26T14:08:13.225Z,3.83
2022-09-26T14:13:20.160Z,6.65
2022-09-26T14:18:54.906Z,4.47
2022-09-26T14:24:33.920Z,4.03
2022-09-26T14:29:45.225Z,3.22
2022-09-26T14:34:49.417Z,2.92
2022-09-26T14:40:04.424Z,4.05
2022-09-26T14:45:18.633Z,3.30
2022-09-26T14:50:26.958Z,6.13
2022-09-26T14:55:32.193Z,2.60
2022-09-26T15:00:40.543Z,4.18
2022-09-26T15:05:44.851Z,3.97
2022-09-26T15:10:50.093Z,4.90
2022-09-26T15:16:08.056Z,3.03
2022-09-26T15:21:26.367Z,5.45
2022-09-26T15:26:35.097Z,3.55
2022-09-26T15:31:39.594Z,3.05
2022-09-26T15:36:43.424Z,5.35
2022-09-26T15:42:13.452Z,6.10
2022-09-26T15:47:27.811Z,8.32
2022-09-26T15:52:33.158Z,9.70
2022-09-26T15:57:37.751Z,4.85
2022-09-26T16:02:40.742Z,6.53
2022-09-26T16:07:50.007Z,2.47
2022-09-26T16:12:54.340Z,6.85
2022-09-26T16:17:59.145Z,8.05
2022-09-26T16:23:05.370Z,7.57
2022-09-26T16:28:44.577Z,4.03
2022-09-26T16:33:52.221Z,13.32
2022-09-26T16:38:58.148Z,4.85
2022-09-26T16:44:08.625Z,4.03
2022-09-26T16:49:31.089Z,7.38
2022-09-26T16:54:33.912Z,4.80
2022-09-26T16:59:38.251Z,4.20
2022-09-26T17:04:41.446Z,3.25
2022-09-26T17:09:44.451Z,4.05
2022-09-26T17:14:51.863Z,4.80
2022-09-26T17:19:59.415Z,3.42
2022-09-26T17:25:02.733Z,5.88
2022-09-26T17:30:15.621Z,3.05
2022-09-26T17:40:27.697Z,6.53
2022-09-26T17:45:34.314Z,7.07
2022-09-26T17:50:38.909Z,8.55
2022-09-26T17:55:41.810Z,6.05
2022-09-26T18:00:49.206Z,4.13
2022-09-26T18:05:52.259Z,5.03
2022-09-26T18:10:57.798Z,3.15
2022-09-26T18:16:03.332Z,3.55
2022-09-26T18:21:07.454Z,4.57
2022-09-26T18:26:16.229Z,4.00
2022-09-26T18:31:28.082Z,6.70
2022-09-26T18:36:33.804Z,4.47
2022-09-26T18:41:36.878Z,6.20
2022-09-26T18:46:44.330Z,5.22
2022-09-26T18:51:47.591Z,3.33
2022-09-26T18:57:08.093Z,3.22
2022-09-26T19:02:21.228Z,6.63
2022-09-26T19:07:25.129Z,6.32
2022-09-26T19:12:28.021Z,4.55
2022-09-26T19:17:32.216Z,6.47
2022-09-26T19:22:35.327Z,12.30
2022-09-26T19:27:43.828Z,6.57
2022-09-26T19:32:50.449Z,5.32
2022-09-26T19:37:54.024Z,5.13
2022-09-26T19:42:57.439Z,8.20
2022-09-26T19:48:02.622Z,3.45
2022-09-26T19:53:13.725Z,8.05
2022-09-26T19:58:18.845Z,6.70
2022-09-26T20:03:30.651Z,5.18
2022-09-26T20:08:33.608Z,5.00
2022-09-26T20:13:57.753Z,5.22
2022-09-26T20:19:04.231Z,3.35
2022-09-26T20:24:09.884Z,5.63
2022-09-26T20:29:14.909Z,5.57
2022-09-26T20:34:19.094Z,5.03
2022-09-26T20:39:26.274Z,5.15
2022-09-26T20:44:33.596Z,3.28
2022-09-26T20:49:43.937Z,5.28
2022-09-26T20:54:47.164Z,3.72
2022-09-26T20:59:50.422Z,3.63
2022-09-26T21:04:55.545Z,4.13
2022-09-26T21:09:58.938Z,4.88
2022-09-26T21:15:01.718Z,4.28
2022-09-26T21:20:06.757Z,3.85
2022-09-26T21:25:41.653Z,4.53
2022-09-26T21:30:44.943Z,4.65
2022-09-26T21:35:49.496Z,4.10
2022-09-26T21:40:58.713Z,3.47
2022-09-26T21:46:01.630Z,3.58
2022-09-26T21:51:07.709Z,4.15
2022-09-26T21:56:15.569Z,5.13
2022-09-26T22:01:18.432Z,3.22
2022-09-26T22:06:22.669Z,5.43
2022-09-26T22:11:26.233Z,3.15
2022-09-26T22:16:29.201Z,4.60
2022-09-26T22:21:33.497Z,7.95
2022-09-26T22:26:36.305Z,6.72
2022-09-26T22:31:39.139Z,5.13
2022-09-26T22:36:43.340Z,6.68
2022-09-26T22:41:46.270Z,7.57
2022-09-26T22:46:49.179Z,9.73
2022-09-26T22:51:53.583Z,11.00
2022-09-26T22:56:57.153Z,11.95
2022-09-26T23:02:00.209Z,12.80
2022-09-26T23:07:04.510Z,14.32
2022-09-26T23:12:07.620Z,17.95
2022-09-26T23:17:10.554Z,18.10
2022-09-26T23:22:15.369Z,18.40
2022-09-26T23:27:18.169Z,16.80
2022-09-26T23:32:21.133Z,19.77
2022-09-26T23:37:25.325Z,16.08
2022-09-26T23:42:28.652Z,19.25
2022-09-26T23:47:31.513Z,16.67
2022-09-26T23:52:36.082Z,19.63
2022-09-26T23:57:38.854Z,19.30
